createdAt,value
2023-08-15T00:02:21.139Z,98079.84
2023-08-15T00:04:48.708Z,98084.00
2023-08-15T00:07:18.345Z,98082.25
2023-08-15T00:09:50.586Z,98071.75
2023-08-15T00:12:20.400Z,98079.47
2023-08-15T00:14:51.144Z,98075.72
2023-08-15T00:17:20.690Z,98079.66
2023-08-15T00:19:48.817Z,98076.94
2023-08-15T00:22:18.726Z,98072.88
2023-08-15T00:24:47.382Z,98078.63
2023-08-15T00:27:16.768Z,98083.88
2023-08-15T00:29:48.383Z,98079.53
2023-08-15T00:32:17.178Z,98080.34
2023-08-15T00:34:46.104Z,98070.31
2023-08-15T00:37:14.613Z,98080.66
2023-08-15T00:39:42.730Z,98076.56
2023-08-15T00:42:11.595Z,98075.56
2023-08-15T00:44:44.844Z,98075.78
2023-08-15T00:47:12.959Z,98081.13
2023-08-15T00:49:42.927Z,98087.41
2023-08-15T00:52:13.890Z,98087.72
2023-08-15T00:54:49.361Z,98082.56
2023-08-15T00:57:21.560Z,98078.81
2023-08-15T00:59:50.850Z,98075.06
2023-08-15T01:02:21.777Z,98072.81
2023-08-15T01:04:52.417Z,98063.84
2023-08-15T01:07:21.251Z,98067.59
2023-08-15T01:09:49.480Z,98080.94
2023-08-15T01:12:33.194Z,98071.94
2023-08-15T01:15:06.835Z,98070.31
2023-08-15T01:18:03.199Z,98067.78
2023-08-15T01:20:34.599Z,98074.25
2023-08-15T01:23:07.827Z,98067.47
2023-08-15T01:25:43.413Z,98071.69
2023-08-15T01:28:13.766Z,98069.91
2023-08-15T01:30:58.554Z,98071.28
2023-08-15T01:33:38.896Z,98070.84
2023-08-15T01:36:27.697Z,98072.81
2023-08-15T01:39:03.266Z,98068.41
2023-08-15T01:41:37.253Z,98059.63
2023-08-15T01:44:08.571Z,98051.69
2023-08-15T01:46:37.632Z,98047.91
2023-08-15T01:49:05.276Z,98046.22
2023-08-15T01:51:34.395Z,98045.72
2023-08-15T01:54:04.868Z,98046.84
2023-08-15T01:56:35.104Z,98039.97
2023-08-15T01:59:03.119Z,98041.66
2023-08-15T02:01:32.275Z,98042.28
2023-08-15T02:04:00.113Z,98043.66
2023-08-15T02:06:33.173Z,98041.09
2023-08-15T02:09:02.149Z,98048.72
2023-08-15T02:11:36.094Z,98031.66
2023-08-15T02:14:04.840Z,98037.09
2023-08-15T02:16:35.851Z,98043.41
2023-08-15T02:19:04.734Z,98042.28
2023-08-15T02:21:34.157Z,98041.00
2023-08-15T02:24:03.110Z,98040.41
2023-08-15T02:26:31.601Z,98043.94
2023-08-15T02:29:00.518Z,98036.84
2023-08-15T02:31:30.595Z,98037.47
2023-08-15T02:33:58.248Z,98038.03
2023-08-15T02:36:25.870Z,98046.53
2023-08-15T02:38:53.768Z,98038.69
2023-08-15T02:41:25.004Z,98052.97
2023-08-15T02:43:53.803Z,98055.28
2023-08-15T02:46:23.498Z,98060.56
2023-08-15T02:48:57.406Z,98055.19
2023-08-15T02:51:29.008Z,98056.31
2023-08-15T02:53:57.201Z,98047.09
2023-08-15T02:56:26.588Z,98043.25
2023-08-15T02:58:56.465Z,98034.84
2023-08-15T03:01:28.004Z,98026.19
2023-08-15T03:03:55.615Z,98027.91
2023-08-15T03:06:25.653Z,98032.91
2023-08-15T03:08:53.185Z,98037.53
2023-08-15T03:11:24.429Z,98043.25
2023-08-15T03:13:52.159Z,98044.38
2023-08-15T03:16:19.868Z,98043.56
2023-08-15T03:18:49.943Z,98046.91
2023-08-15T03:21:20.244Z,98046.50
2023-08-15T03:23:48.403Z,98049.56
2023-08-15T03:26:17.067Z,98048.00
2023-08-15T03:28:50.124Z,98057.81
2023-08-15T03:31:18.121Z,98056.84
2023-08-15T03:33:52.840Z,98051.66
2023-08-15T03:36:21.058Z,98056.06
2023-08-15T03:38:49.773Z,98044.59
2023-08-15T03:41:19.884Z,98034.72
2023-08-15T03:43:49.103Z,98042.63
2023-08-15T03:46:21.537Z,98039.91
2023-08-15T03:48:51.289Z,98048.25
2023-08-15T03:51:44.216Z,98065.38
2023-08-15T03:54:15.716Z,98073.28
2023-08-15T03:56:43.846Z,98066.50
2023-08-15T03:59:13.372Z,98061.13
2023-08-15T04:01:44.129Z,98067.16
2023-08-15T04:04:12.155Z,98065.59
2023-08-15T04:06:42.715Z,98070.25
2023-08-15T04:09:10.342Z,98077.59
2023-08-15T04:11:38.210Z,98077.84
2023-08-15T04:14:07.990Z,98074.22
2023-08-15T04:16:36.941Z,98078.28
2023-08-15T04:19:05.353Z,98077.44
2023-08-15T04:21:34.135Z,98085.59
2023-08-15T04:24:04.338Z,98083.91
2023-08-15T04:26:32.201Z,98081.34
2023-08-15T04:29:01.015Z,98072.31
2023-08-15T04:31:35.764Z,98069.28
2023-08-15T04:34:08.199Z,98074.97
2023-08-15T04:36:45.562Z,98078.19
2023-08-15T04:39:15.618Z,98066.38
2023-08-15T04:41:46.829Z,98072.28
2023-08-15T04:44:15.297Z,98080.78
2023-08-15T04:46:43.003Z,98077.50
2023-08-15T04:49:17.788Z,98081.53
2023-08-15T04:51:46.462Z,98089.66
2023-08-15T04:54:14.053Z,98094.50
2023-08-15T04:56:42.926Z,98100.25
2023-08-15T04:59:10.496Z,98091.78
2023-08-15T05:01:38.049Z,98103.22
2023-08-15T05:04:05.999Z,98105.69
2023-08-15T05:06:36.390Z,98114.03
2023-08-15T05:09:04.010Z,98110.78
2023-08-15T05:11:33.817Z,98115.50
2023-08-15T05:14:03.925Z,98111.66
2023-08-15T05:16:32.113Z,98119.16
2023-08-15T05:19:00.799Z,98114.06
2023-08-15T05:21:29.605Z,98117.59
2023-08-15T05:23:58.713Z,98122.00
2023-08-15T05:26:27.882Z,98118.72
2023-08-15T05:28:57.600Z,98127.22
2023-08-15T05:31:28.681Z,98119.03
2023-08-15T05:33:57.288Z,98113.75
2023-08-15T05:36:26.059Z,98119.25
2023-08-15T05:38:53.688Z,98111.38
2023-08-15T05:41:25.715Z,98121.91
2023-08-15T05:43:54.938Z,98109.22
2023-08-15T05:46:27.794Z,98107.34
2023-08-15T05:48:56.420Z,98119.03
2023-08-15T05:51:24.208Z,98121.09
2023-08-15T05:53:53.011Z,98126.81
2023-08-15T05:56:21.798Z,98128.50
2023-08-15T05:58:49.833Z,98140.28
2023-08-15T06:01:17.377Z,98161.47
2023-08-15T06:03:52.415Z,98164.44
2023-08-15T06:06:23.106Z,98159.34
2023-08-15T06:08:50.687Z,98148.97
2023-08-15T06:11:20.872Z,98147.88
2023-08-15T06:13:48.843Z,98141.94
2023-08-15T06:16:17.712Z,98151.06
2023-08-15T06:18:46.701Z,98153.41
2023-08-15T06:21:17.497Z,98155.72
2023-08-15T06:23:53.892Z,98147.63
2023-08-15T06:26:24.052Z,98143.88
2023-08-15T06:31:31.447Z,98149.09
2023-08-15T06:33:59.679Z,98149.88
2023-08-15T06:36:31.415Z,98158.16
2023-08-15T06:39:02.061Z,98161.06
2023-08-15T06:41:29.776Z,98155.28
2023-08-15T06:43:58.133Z,98154.63
2023-08-15T06:46:26.414Z,98154.22
2023-08-15T06:48:54.470Z,98150.44
2023-08-15T06:51:22.203Z,98158.53
2023-08-15T06:53:54.123Z,98166.13
2023-08-15T06:56:22.366Z,98167.88
2023-08-15T06:58:52.256Z,98162.44
2023-08-15T07:01:20.431Z,98172.81
2023-08-15T07:03:48.218Z,98168.16
2023-08-15T07:06:17.295Z,98165.03
2023-08-15T07:08:45.544Z,98169.03
2023-08-15T07:11:13.212Z,98177.81
2023-08-15T07:13:46.180Z,98180.00
2023-08-15T07:16:16.866Z,98178.56
2023-08-15T07:18:44.497Z,98185.00
2023-08-15T07:21:12.129Z,98185.59
2023-08-15T07:23:40.485Z,98180.31
2023-08-15T07:26:09.565Z,98179.00
2023-08-15T07:28:37.297Z,98173.41
2023-08-15T07:31:04.962Z,98176.59
2023-08-15T07:33:33.866Z,98175.88
2023-08-15T07:36:03.207Z,98181.44
2023-08-15T07:38:30.673Z,98185.38
2023-08-15T07:40:58.904Z,98182.53
2023-08-15T07:43:26.904Z,98180.44
2023-08-15T07:45:54.589Z,98183.53
2023-08-15T07:48:22.345Z,98184.00
2023-08-15T07:50:50.713Z,98179.34
2023-08-15T07:53:18.368Z,98175.34
2023-08-15T07:55:46.496Z,98191.47
2023-08-15T07:58:15.706Z,98188.25
2023-08-15T08:00:45.728Z,98173.50
2023-08-15T08:03:13.768Z,98185.97
2023-08-15T08:05:41.450Z,98193.53
2023-08-15T08:08:09.607Z,98190.75
2023-08-15T08:10:40.101Z,98193.13
2023-08-15T08:13:13.259Z,98196.25
2023-08-15T08:15:44.339Z,98198.03
2023-08-15T08:18:11.899Z,98198.19
2023-08-15T08:20:41.039Z,98198.19
2023-08-15T08:23:09.401Z,98194.38
2023-08-15T08:25:37.452Z,98193.19
2023-08-15T08:28:06.191Z,98193.97
2023-08-15T08:30:36.155Z,98192.28
2023-08-15T08:33:06.122Z,98198.53
2023-08-15T08:35:33.899Z,98194.66
2023-08-15T08:38:02.552Z,98193.22
2023-08-15T08:40:33.830Z,98183.28
2023-08-15T08:43:02.593Z,98199.59
2023-08-15T08:45:35.134Z,98190.53
2023-08-15T08:48:10.690Z,98182.72
2023-08-15T08:50:39.100Z,98184.59
2023-08-15T08:53:09.208Z,98184.13
2023-08-15T08:55:40.383Z,98188.38
2023-08-15T08:58:12.010Z,98190.50
2023-08-15T09:00:44.106Z,98194.56
2023-08-15T09:03:11.741Z,98196.91
2023-08-15T09:05:43.944Z,98189.56
2023-08-15T09:08:12.759Z,98192.88
2023-08-15T09:10:41.747Z,98191.50
2023-08-15T09:13:11.647Z,98185.91
2023-08-15T09:15:44.677Z,98192.22
2023-08-15T09:18:20.425Z,98198.22
2023-08-15T09:20:51.031Z,98197.84
2023-08-15T09:23:19.356Z,98194.13
2023-08-15T09:25:56.651Z,98197.41
2023-08-15T09:28:25.045Z,98195.91
2023-08-15T09:30:57.964Z,98193.75
2023-08-15T09:33:27.530Z,98186.31
2023-08-15T09:35:59.030Z,98187.69
2023-08-15T09:38:28.791Z,98190.59
2023-08-15T09:40:58.204Z,98185.44
2023-08-15T09:43:25.843Z,98190.38
2023-08-15T09:45:58.125Z,98192.13
2023-08-15T09:48:30.931Z,98196.78
2023-08-15T09:50:58.787Z,98190.44
2023-08-15T09:53:26.595Z,98185.91
2023-08-15T09:55:55.017Z,98190.78
2023-08-15T09:58:23.577Z,98185.81
2023-08-15T10:00:54.278Z,98185.44
2023-08-15T10:03:31.070Z,98177.38
2023-08-15T10:06:02.494Z,98178.06
2023-08-15T10:08:32.268Z,98185.59
2023-08-15T10:11:01.112Z,98182.38
2023-08-15T10:13:33.322Z,98184.97
2023-08-15T10:16:03.342Z,98180.91
2023-08-15T10:18:32.026Z,98179.41
2023-08-15T10:21:00.680Z,98174.91
2023-08-15T10:23:33.715Z,98178.31
2023-08-15T10:26:02.855Z,98185.84
2023-08-15T10:28:37.233Z,98173.81
2023-08-15T10:31:08.436Z,98172.66
2023-08-15T10:33:36.266Z,98164.47
2023-08-15T10:36:04.376Z,98165.56
2023-08-15T10:38:40.998Z,98164.53
2023-08-15T10:41:18.837Z,98166.78
2023-08-15T10:43:51.400Z,98173.63
2023-08-15T10:46:26.510Z,98176.63
2023-08-15T10:49:03.493Z,98173.88
2023-08-15T10:51:39.860Z,98176.88
2023-08-15T10:54:13.078Z,98180.34
2023-08-15T10:56:42.607Z,98181.22
2023-08-15T10:59:13.917Z,98183.59
2023-08-15T11:01:48.048Z,98177.91
2023-08-15T11:04:21.273Z,98190.69
2023-08-15T11:06:52.644Z,98182.06
2023-08-15T11:09:20.344Z,98177.00
2023-08-15T11:11:49.803Z,98178.47
2023-08-15T11:14:19.527Z,98183.31
2023-08-15T11:16:49.523Z,98187.19
2023-08-15T11:19:18.860Z,98187.34
2023-08-15T11:21:48.863Z,98182.16
2023-08-15T11:24:16.998Z,98184.59
2023-08-15T11:26:44.647Z,98188.97
2023-08-15T11:29:14.077Z,98189.72
2023-08-15T11:31:43.358Z,98187.88
2023-08-15T11:34:13.052Z,98186.63
2023-08-15T11:36:48.462Z,98182.72
2023-08-15T11:39:16.248Z,98186.38
2023-08-15T11:41:45.504Z,98187.25
2023-08-15T11:44:13.429Z,98194.41
2023-08-15T11:49:19.540Z,98199.09
2023-08-15T11:51:48.352Z,98201.25
2023-08-15T11:54:16.033Z,98205.44
2023-08-15T11:56:53.868Z,98197.25
2023-08-15T11:59:24.448Z,98203.50
2023-08-15T12:01:54.122Z,98196.28
2023-08-15T12:04:23.521Z,98209.59
2023-08-15T12:06:52.542Z,98203.06
2023-08-15T12:09:20.260Z,98207.22
2023-08-15T12:11:48.742Z,98210.44
2023-08-15T12:14:20.969Z,98212.34
2023-08-15T12:16:51.263Z,98205.72
2023-08-15T12:19:22.559Z,98214.09
2023-08-15T12:21:53.123Z,98212.41
2023-08-15T12:24:24.180Z,98209.59
2023-08-15T12:26:53.644Z,98218.41
2023-08-15T12:29:44.753Z,98207.34
2023-08-15T12:32:08.916Z,98212.34
2023-08-15T12:34:38.340Z,98216.28
2023-08-15T12:37:08.149Z,98209.84
2023-08-15T12:39:36.683Z,98205.06
2023-08-15T12:42:08.011Z,98207.31
2023-08-15T12:44:37.306Z,98207.31
2023-08-15T12:47:06.505Z,98200.63
2023-08-15T12:49:34.976Z,98205.41
2023-08-15T12:52:06.232Z,98204.72
2023-08-15T12:54:35.147Z,98198.84
2023-08-15T12:57:03.089Z,98192.53
2023-08-15T12:59:34.655Z,98194.38
2023-08-15T13:02:04.734Z,98199.28
2023-08-15T13:04:32.358Z,98194.38
2023-08-15T13:07:04.727Z,98189.84
2023-08-15T13:09:34.000Z,98181.81
2023-08-15T13:12:02.522Z,98174.38
2023-08-15T13:14:33.910Z,98172.03
2023-08-15T13:17:02.004Z,98162.59
2023-08-15T13:19:30.162Z,98163.72
2023-08-15T13:21:59.599Z,98164.75
2023-08-15T13:24:29.120Z,98166.03
2023-08-15T13:26:56.784Z,98158.38
2023-08-15T13:29:25.673Z,98159.75
2023-08-15T13:31:54.517Z,98157.03
2023-08-15T13:34:25.781Z,98142.44
2023-08-15T13:36:53.853Z,98145.63
2023-08-15T13:39:21.429Z,98142.19
2023-08-15T13:41:50.989Z,98140.72
2023-08-15T13:44:18.508Z,98137.94
2023-08-15T13:46:46.648Z,98125.78
2023-08-15T13:49:14.407Z,98129.28
2023-08-15T13:51:43.606Z,98128.84
2023-08-15T13:54:11.469Z,98126.63
2023-08-15T13:56:40.275Z,98136.44
2023-08-15T14:00:52.740Z,98127.44
2023-08-15T14:03:21.434Z,98136.41
2023-08-15T14:05:50.407Z,98130.84
2023-08-15T14:08:18.160Z,98157.31
2023-08-15T14:10:48.843Z,98166.03
2023-08-15T14:13:16.871Z,98160.94
2023-08-15T14:15:44.314Z,98154.16
2023-08-15T14:18:13.717Z,98146.56
2023-08-15T14:20:41.857Z,98150.59
2023-08-15T14:23:09.459Z,98160.13
2023-08-15T14:25:38.277Z,98158.69
2023-08-15T14:28:08.037Z,98158.75
2023-08-15T14:30:35.931Z,98162.25
2023-08-15T14:33:05.614Z,98164.78
2023-08-15T14:35:34.369Z,98161.13
2023-08-15T14:38:04.455Z,98154.94
2023-08-15T14:40:34.867Z,98157.06
2023-08-15T14:43:03.880Z,98160.47
2023-08-15T14:45:31.629Z,98159.09
2023-08-15T14:47:59.267Z,98156.75
2023-08-15T14:50:27.060Z,98158.94
2023-08-15T14:52:54.797Z,98169.50
2023-08-15T14:55:24.736Z,98168.53
2023-08-15T14:57:55.137Z,98170.59
2023-08-15T15:00:25.975Z,98166.03
2023-08-15T15:02:54.281Z,98172.63
2023-08-15T15:05:23.764Z,98170.91
2023-08-15T15:07:57.358Z,98168.28
2023-08-15T15:10:25.071Z,98158.78
2023-08-15T15:12:54.541Z,98161.19
2023-08-15T15:15:28.032Z,98160.22
2023-08-15T15:18:09.313Z,98150.66
2023-08-15T15:20:37.934Z,98147.63
2023-08-15T15:23:05.705Z,98142.69
2023-08-15T15:25:34.547Z,98146.19
2023-08-15T15:28:05.245Z,98135.13
2023-08-15T15:30:33.009Z,98136.78
2023-08-15T15:33:03.854Z,98131.22
2023-08-15T15:35:31.789Z,98133.09
2023-08-15T15:37:59.559Z,98121.59
2023-08-15T15:40:36.854Z,98127.75
2023-08-15T15:43:04.712Z,98121.41
2023-08-15T15:45:37.442Z,98116.28
2023-08-15T15:48:05.903Z,98118.56
2023-08-15T15:50:38.249Z,98121.97
2023-08-15T15:53:07.496Z,98136.22
2023-08-15T15:55:39.269Z,98141.09
2023-08-15T15:58:07.043Z,98140.81
2023-08-15T16:00:34.791Z,98149.13
2023-08-15T16:03:03.521Z,98152.25
2023-08-15T16:05:33.800Z,98156.63
2023-08-15T16:08:02.854Z,98163.44
2023-08-15T16:10:33.401Z,98162.13
2023-08-15T16:13:01.490Z,98164.78
2023-08-15T16:15:29.460Z,98176.00
2023-08-15T16:17:58.600Z,98173.44
2023-08-15T16:20:26.494Z,98160.13
2023-08-15T16:22:54.226Z,98169.44
2023-08-15T16:25:23.201Z,98172.69
2023-08-15T16:27:57.859Z,98180.72
2023-08-15T16:30:26.467Z,98185.31
2023-08-15T16:32:58.249Z,98182.81
2023-08-15T16:35:27.053Z,98191.19
2023-08-15T16:38:00.362Z,98192.22
2023-08-15T16:40:30.412Z,98196.25
2023-08-15T16:43:12.822Z,98193.81
2023-08-15T16:45:41.595Z,98201.66
2023-08-15T16:48:14.974Z,98207.16
2023-08-15T16:50:45.423Z,98201.63
2023-08-15T16:53:13.696Z,98209.22
2023-08-15T16:55:41.337Z,98210.97
2023-08-15T16:58:13.848Z,98219.50
2023-08-15T17:00:41.579Z,98216.69
2023-08-15T17:03:13.182Z,98225.34
2023-08-15T17:05:42.303Z,98230.19
2023-08-15T17:08:11.833Z,98224.72
2023-08-15T17:10:40.614Z,98231.66
2023-08-15T17:13:11.752Z,98235.31
2023-08-15T17:15:46.498Z,98231.28
2023-08-15T17:18:15.716Z,98236.13
2023-08-15T17:20:51.553Z,98235.22
2023-08-15T17:23:24.307Z,98237.41
2023-08-15T17:25:53.584Z,98238.00
2023-08-15T17:28:21.382Z,98242.47
2023-08-15T17:30:52.131Z,98234.88
2023-08-15T17:33:22.854Z,98249.91
2023-08-15T17:35:51.668Z,98251.28
2023-08-15T17:38:19.135Z,98245.53
2023-08-15T17:40:50.372Z,98250.13
2023-08-15T17:43:18.999Z,98256.84
2023-08-15T17:45:51.126Z,98256.13
2023-08-15T17:48:22.674Z,98254.06
2023-08-15T17:50:50.749Z,98257.50
2023-08-15T17:53:33.347Z,98260.47
2023-08-15T17:56:03.848Z,98261.72
2023-08-15T17:58:51.654Z,98263.84
2023-08-15T18:01:20.286Z,98263.94
2023-08-15T18:03:50.561Z,98269.03
2023-08-15T18:06:19.743Z,98275.75
2023-08-15T18:08:50.781Z,98279.09
2023-08-15T18:11:24.062Z,98285.16
2023-08-15T18:13:51.826Z,98281.31
2023-08-15T18:16:26.634Z,98275.19
2023-08-15T18:18:56.059Z,98284.31
2023-08-15T18:21:30.614Z,98287.41
2023-08-15T18:23:58.332Z,98293.09
2023-08-15T18:26:27.889Z,98293.25
2023-08-15T18:28:57.353Z,98292.78
2023-08-15T18:31:26.678Z,98293.13
2023-08-15T18:33:54.837Z,98296.22
2023-08-15T18:36:25.370Z,98298.38
2023-08-15T18:38:55.065Z,98294.66
2023-08-15T18:41:23.916Z,98297.78
2023-08-15T18:43:51.423Z,98299.56
2023-08-15T18:46:20.363Z,98295.06
2023-08-15T18:48:49.821Z,98302.19
2023-08-15T18:51:17.583Z,98311.13
2023-08-15T18:53:46.218Z,98310.97
2023-08-15T18:56:13.810Z,98308.69
2023-08-15T18:58:45.119Z,98316.75
2023-08-15T19:01:15.422Z,98316.94
2023-08-15T19:03:44.099Z,98317.63
2023-08-15T19:06:14.686Z,98316.31
2023-08-15T19:08:43.212Z,98315.03
2023-08-15T19:11:11.970Z,98318.75
2023-08-15T19:13:39.744Z,98320.69
2023-08-15T19:16:07.610Z,98320.56
2023-08-15T19:18:35.201Z,98312.97
2023-08-15T19:21:04.437Z,98318.47
2023-08-15T19:23:32.336Z,98317.81
2023-08-15T19:26:00.463Z,98327.47
2023-08-15T19:28:29.839Z,98320.84
2023-08-15T19:30:58.424Z,98322.13
2023-08-15T19:33:27.388Z,98327.13
2023-08-15T19:35:54.985Z,98328.56
2023-08-15T19:38:22.617Z,98329.88
2023-08-15T19:40:50.141Z,98334.22
2023-08-15T19:43:19.331Z,98331.16
2023-08-15T19:45:49.356Z,98330.69
2023-08-15T19:48:19.978Z,98337.13
2023-08-15T19:50:47.906Z,98334.22
2023-08-15T19:53:17.606Z,98338.91
2023-08-15T19:55:45.267Z,98342.44
2023-08-15T19:58:13.722Z,98354.72
2023-08-15T20:00:42.487Z,98348.88
2023-08-15T20:03:10.272Z,98350.66
2023-08-15T20:05:37.867Z,98352.91
2023-08-15T20:08:06.321Z,98349.34
2023-08-15T20:10:34.736Z,98355.13
2023-08-15T20:13:03.539Z,98359.59
2023-08-15T20:15:38.003Z,98360.69
2023-08-15T20:18:09.532Z,98360.53
2023-08-15T20:20:43.184Z,98361.66
2023-08-15T20:23:10.768Z,98365.34
2023-08-15T20:25:38.381Z,98366.91
2023-08-15T20:28:06.502Z,98376.94
2023-08-15T20:30:34.880Z,98363.78
2023-08-15T20:33:04.662Z,98366.66
2023-08-15T20:35:36.053Z,98375.13
2023-08-15T20:38:03.678Z,98368.78
2023-08-15T20:40:35.087Z,98380.88
2023-08-15T20:43:06.539Z,98380.06
2023-08-15T20:45:35.464Z,98380.19
2023-08-15T20:48:03.501Z,98380.00
2023-08-15T20:50:31.529Z,98384.72
2023-08-15T20:52:59.134Z,98382.72
2023-08-15T20:55:28.776Z,98386.41
2023-08-15T20:57:56.904Z,98394.56
2023-08-15T21:00:24.757Z,98408.72
2023-08-15T21:02:52.600Z,98412.88
2023-08-15T21:06:07.008Z,98414.47
2023-08-15T21:08:34.691Z,98403.53
2023-08-15T21:11:04.393Z,98419.47
2023-08-15T21:13:31.968Z,98417.66
2023-08-15T21:15:59.794Z,98419.38
2023-08-15T21:18:41.937Z,98416.44
2023-08-15T21:21:09.585Z,98420.94
2023-08-15T21:23:37.400Z,98410.91
2023-08-15T21:26:04.981Z,98417.28
2023-08-15T21:28:39.913Z,98422.50
2023-08-15T21:31:11.861Z,98418.91
2023-08-15T21:33:39.529Z,98422.16
2023-08-15T21:36:10.360Z,98422.66
2023-08-15T21:38:40.672Z,98426.72
2023-08-15T21:41:11.404Z,98432.81
2023-08-15T21:43:39.677Z,98427.75
2023-08-15T21:46:07.891Z,98429.78
2023-08-15T21:48:35.847Z,98424.00
2023-08-15T21:51:06.086Z,98431.22
2023-08-15T21:53:34.206Z,98437.59
2023-08-15T21:56:02.971Z,98441.44
2023-08-15T21:58:30.417Z,98439.00
2023-08-15T22:00:58.368Z,98439.09
2023-08-15T22:03:26.770Z,98443.28
2023-08-15T22:05:55.608Z,98428.47
2023-08-15T22:08:28.112Z,98432.31
2023-08-15T22:10:55.690Z,98440.34
2023-08-15T22:13:23.974Z,98446.84
2023-08-15T22:15:52.125Z,98445.81
2023-08-15T22:18:21.813Z,98445.41
2023-08-15T22:20:51.217Z,98441.34
2023-08-15T22:23:21.999Z,98438.31
2023-08-15T22:25:51.389Z,98437.03
2023-08-15T22:28:19.780Z,98438.84
2023-08-15T22:30:51.688Z,98438.84
2023-08-15T22:33:22.536Z,98430.44
2023-08-15T22:35:54.629Z,98431.53
2023-08-15T22:38:23.585Z,98430.03
2023-08-15T22:40:51.294Z,98431.41
2023-08-15T22:43:20.354Z,98431.19
2023-08-15T22:45:50.339Z,98434.63
2023-08-15T22:48:18.113Z,98442.00
2023-08-15T22:50:45.690Z,98426.13
2023-08-15T22:53:18.121Z,98433.22
2023-08-15T22:55:46.904Z,98430.28
2023-08-15T22:58:19.495Z,98428.97
2023-08-15T23:00:48.000Z,98410.41
2023-08-15T23:03:17.289Z,98417.81
2023-08-15T23:05:48.315Z,98424.09
2023-08-15T23:08:16.961Z,98423.16
2023-08-15T23:10:56.044Z,98423.38
2023-08-15T23:13:23.772Z,98413.94
2023-08-15T23:15:51.835Z,98414.00
2023-08-15T23:18:21.659Z,98413.19
2023-08-15T23:20:49.757Z,98413.47
2023-08-15T23:23:23.033Z,98417.25
2023-08-15T23:25:51.824Z,98421.41
2023-08-15T23:28:19.992Z,98417.31
2023-08-15T23:30:49.924Z,98407.78
2023-08-15T23:33:17.663Z,98409.72
2023-08-15T23:35:46.630Z,98403.75
2023-08-15T23:38:16.700Z,98402.13
2023-08-15T23:40:47.344Z,98407.44
2023-08-15T23:43:15.703Z,98409.50
2023-08-15T23:45:51.334Z,98402.09
2023-08-15T23:48:20.768Z,98399.19
2023-08-15T23:50:52.667Z,98396.50
2023-08-15T23:53:21.689Z,98390.53
2023-08-15T23:55:50.127Z,98396.50
2023-08-15T23:58:17.912Z,98392.78
